Time;durP1;ratioP1;P1;durP2;ratioP2;P2;SDS_P1;SDS_P2;PMS_P1;PMS_P2;Temp;Humidity;BMP_temperature;BMP_pressure;BME280_temperature;BME280_humidity;BME280_pressure;Samples;Min_cycle;Max_cycle;Signal;HPM_P1;HPM_P2
2023/03/16 00:01:04;;;;;;;31.13;10.52;;;;;;;;;;12827364;19;20426;-68
2023/03/16 00:05:28;;;;;;;52.83;15.40;;;;;;;;;;12821905;19;20501;-68
2023/03/16 00:16:07;;;;;;;41.55;12.77;;;;;;;;;;12819230;19;20498;-68
2023/03/16 00:21:08;;;;;;;46.05;12.52;;;;;;;;;;12819702;19;20011;-68
2023/03/16 00:32:27;;;;;;;27.00;9.95;;;;;;;;;;12716903;19;2004912;-68
2023/03/16 00:37:14;;;;;;;33.30;10.10;;;;;;;;;;12817612;19;20552;-68
2023/03/16 00:47:38;;;;;;;38.50;10.63;;;;;;;;;;12817097;19;20453;-68
2023/03/16 00:52:37;;;;;;;27.13;9.75;;;;;;;;;;12819092;19;20571;-68
2023/03/16 00:58:34;;;;;;;27.77;9.45;;;;;;;;;;12817281;19;20427;-68
2023/03/16 01:09:16;;;;;;;30.35;10.68;;;;;;;;;;12821693;19;20311;-68
2023/03/16 01:13:39;;;;;;;33.45;10.48;;;;;;;;;;12823392;19;20497;-68
2023/03/16 01:18:19;;;;;;;72.53;18.70;;;;;;;;;;12825584;19;20103;-68
2023/03/16 01:23:06;;;;;;;72.80;15.25;;;;;;;;;;12820477;19;20010;-68
2023/03/16 01:33:15;;;;;;;40.08;13.07;;;;;;;;;;12824800;19;20441;-69
2023/03/16 01:38:14;;;;;;;41.70;12.05;;;;;;;;;;12817485;19;20014;-68
2023/03/16 01:43:12;;;;;;;30.50;12.18;;;;;;;;;;12814281;19;20303;-69
2023/03/16 01:48:36;;;;;;;33.10;12.00;;;;;;;;;;12821071;19;20030;-68
2023/03/16 01:53:43;;;;;;;25.23;10.15;;;;;;;;;;12821198;19;20086;-67
2023/03/16 01:58:29;;;;;;;29.85;9.80;;;;;;;;;;12818366;19;20374;-68
2023/03/16 02:03:44;;;;;;;26.67;9.48;;;;;;;;;;12820047;19;20442;-67
2023/03/16 02:09:12;;;;;;;23.00;9.25;;;;;;;;;;12813941;19;20436;-69
2023/03/16 02:13:37;;;;;;;35.55;10.45;;;;;;;;;;12815436;19;20007;-68
2023/03/16 02:18:06;;;;;;;22.42;8.43;;;;;;;;;;12821950;19;20549;-67
2023/03/16 02:23:43;;;;;;;23.75;9.10;;;;;;;;;;12814071;19;20349;-68
2023/03/16 02:29:18;;;;;;;36.10;11.52;;;;;;;;;;12811659;19;20315;-68
2023/03/16 02:34:04;;;;;;;21.35;8.75;;;;;;;;;;12812139;19;20517;-68
2023/03/16 02:39:21;;;;;;;17.02;8.63;;;;;;;;;;12813673;19;20541;-68
2023/03/16 02:44:47;;;;;;;22.65;9.10;;;;;;;;;;12811477;19;20427;-68
2023/03/16 02:49:45;;;;;;;24.13;9.48;;;;;;;;;;12814104;19;20569;-67
2023/03/16 02:55:24;;;;;;;26.50;10.20;;;;;;;;;;12819255;19;20346;-68
2023/03/16 03:00:47;;;;;;;27.95;11.13;;;;;;;;;;12816994;19;20015;-68
2023/03/16 03:05:41;;;;;;;36.08;12.35;;;;;;;;;;12820192;19;20388;-68
2023/03/16 03:10:24;;;;;;;32.90;13.63;;;;;;;;;;12824714;19;20315;-67
2023/03/16 03:15:31;;;;;;;38.92;15.10;;;;;;;;;;12830397;19;20052;-68
2023/03/16 03:20:38;;;;;;;;;;;;;;;;;;12822702;19;20402;-68
2023/03/16 03:25:26;;;;;;;33.85;16.15;;;;;;;;;;12824021;19;20378;-68
2023/03/16 03:36:24;;;;;;;39.88;14.20;;;;;;;;;;12720415;19;2005183;-68
2023/03/16 03:41:18;;;;;;;30.00;14.30;;;;;;;;;;12821404;19;20054;-68
2023/03/16 03:45:36;;;;;;;33.80;14.60;;;;;;;;;;12822704;19;20524;-68
2023/03/16 03:50:34;;;;;;;35.37;12.40;;;;;;;;;;12823782;19;20497;-68
2023/03/16 04:01:22;;;;;;;27.67;11.45;;;;;;;;;;12818722;19;20387;-68
2023/03/16 04:05:43;;;;;;;31.47;12.27;;;;;;;;;;12821550;19;20307;-68
2023/03/16 04:11:20;;;;;;;23.15;9.90;;;;;;;;;;12818446;19;20215;-68
2023/03/16 04:16:31;;;;;;;20.80;9.55;;;;;;;;;;12818108;19;20572;-68
2023/03/16 04:21:15;;;;;;;25.25;9.23;;;;;;;;;;12818706;19;20346;-68
2023/03/16 04:32:10;;;;;;;21.48;10.13;;;;;;;;;;12816349;19;20358;-68
2023/03/16 04:36:35;;;;;;;22.42;9.70;;;;;;;;;;12816556;19;20292;-68
2023/03/16 04:41:25;;;;;;;25.35;10.45;;;;;;;;;;12818620;19;20453;-68
2023/03/16 04:51:35;;;;;;;20.55;10.32;;;;;;;;;;12817472;19;20417;-69
2023/03/16 04:56:44;;;;;;;26.67;10.80;;;;;;;;;;12816305;19;20317;-68
2023/03/16 05:08:09;;;;;;;22.08;11.02;;;;;;;;;;12715030;19;2005176;-68
2023/03/16 05:13:13;;;;;;;45.30;13.20;;;;;;;;;;12814489;19;20482;-68
2023/03/16 05:18:03;;;;;;;30.73;11.93;;;;;;;;;;12816330;19;20409;-68
2023/03/16 05:23:10;;;;;;;31.30;12.38;;;;;;;;;;12816713;19;20309;-68
2023/03/16 05:28:43;;;;;;;25.80;10.55;;;;;;;;;;12821362;19;20041;-68
2023/03/16 05:39:44;;;;;;;24.50;10.32;;;;;;;;;;12813458;19;20033;-68
2023/03/16 05:44:43;;;;;;;29.02;12.10;;;;;;;;;;12814053;19;20407;-68
2023/03/16 05:49:18;;;;;;;34.75;12.82;;;;;;;;;;12813754;19;20300;-68
2023/03/16 05:55:08;;;;;;;47.20;19.92;;;;;;;;;;12820264;19;20002;-69
2023/03/16 06:00:34;;;;;;;101.50;38.08;;;;;;;;;;12713159;19;2005033;-69
2023/03/16 06:05:38;;;;;;;126.00;52.22;;;;;;;;;;12816744;19;20311;-68
2023/03/16 06:17:07;;;;;;;42.90;19.13;;;;;;;;;;12819990;19;20718;-68
2023/03/16 06:21:40;;;;;;;39.60;16.52;;;;;;;;;;12819470;19;20080;-68
2023/03/16 06:26:30;;;;;;;46.97;17.05;;;;;;;;;;12822301;19;20010;-68
2023/03/16 06:31:14;;;;;;;31.75;14.77;;;;;;;;;;12823269;19;20017;-68
2023/03/16 06:41:34;;;;;;;29.15;13.00;;;;;;;;;;12811005;19;20006;-67
2023/03/16 06:46:24;;;;;;;26.55;13.90;;;;;;;;;;12813351;19;20814;-68
2023/03/16 06:51:06;;;;;;;32.80;12.65;;;;;;;;;;12814938;19;20323;-68
2023/03/16 06:56:20;;;;;;;28.77;14.32;;;;;;;;;;12815138;19;21217;-68
2023/03/16 07:01:05;;;;;;;27.42;11.70;;;;;;;;;;12815460;19;20347;-67
2023/03/16 07:05:38;;;;;;;34.15;14.35;;;;;;;;;;12818495;19;20066;-67
2023/03/16 07:10:30;;;;;;;23.65;10.95;;;;;;;;;;12817233;19;20430;-68
2023/03/16 07:21:02;;;;;;;20.52;9.48;;;;;;;;;;12809643;19;20426;-68
2023/03/16 07:25:43;;;;;;;23.08;10.80;;;;;;;;;;12809290;19;20479;-67
2023/03/16 07:30:24;;;;;;;26.15;11.07;;;;;;;;;;12815592;19;20039;-68
2023/03/16 07:35:46;;;;;;;18.75;9.88;;;;;;;;;;12809426;19;20302;-68
2023/03/16 07:40:45;;;;;;;28.58;11.35;;;;;;;;;;12808958;19;20011;-68
2023/03/16 07:45:28;;;;;;;27.15;11.95;;;;;;;;;;12809919;19;20346;-67
2023/03/16 07:56:11;;;;;;;38.20;15.70;;;;;;;;;;12713465;19;2005181;-68
2023/03/16 08:00:43;;;;;;;22.15;10.52;;;;;;;;;;12819800;19;20395;-68
2023/03/16 08:11:04;;;;;;;21.02;9.20;;;;;;;;;;12818397;19;20368;-69
2023/03/16 08:16:09;;;;;;;22.63;9.77;;;;;;;;;;12821868;19;20018;-68
2023/03/16 08:27:35;;;;;;;19.65;9.10;;;;;;;;;;12726781;19;2005179;-69
2023/03/16 08:37:50;;;;;;;23.27;10.57;;;;;;;;;;12827644;19;20025;-68
2023/03/16 08:44:11;;;;;;;12.13;5.38;;;;;;;;;;12825008;19;20094;-68
2023/03/16 08:49:05;;;;;;;11.13;5.88;;;;;;;;;;12724577;19;2005169;-70
2023/03/16 09:06:13;;;;;;;9.23;4.40;;;;;;;;;;12816084;19;20321;-68
2023/03/16 09:10:45;;;;;;;;;;;;;;;;;;12826438;19;20533;-68
2023/03/16 09:15:34;;;;;;;5.13;2.10;;;;;;;;;;12824928;19;19926;-69
2023/03/16 09:20:46;;;;;;;7.95;3.30;;;;;;;;;;12815479;19;20316;-69
2023/03/16 09:25:31;;;;;;;10.52;3.60;;;;;;;;;;12814264;19;20031;-68
2023/03/16 09:30:06;;;;;;;2.10;1.67;;;;;;;;;;12817478;19;20393;-70
2023/03/16 09:35:10;;;;;;;3.40;1.55;;;;;;;;;;12823719;19;20421;-69
2023/03/16 09:40:43;;;;;;;4.10;2.28;;;;;;;;;;12813690;19;20502;-69
2023/03/16 09:45:50;;;;;;;5.00;2.75;;;;;;;;;;12814419;19;20349;-68
2023/03/16 09:51:39;;;;;;;6.65;4.18;;;;;;;;;;12815820;19;20027;-69
2023/03/16 09:57:34;;;;;;;12.77;2.60;;;;;;;;;;12712440;19;2005150;-68
2023/03/16 10:03:21;;;;;;;6.88;2.63;;;;;;;;;;12813340;19;20431;-69
2023/03/16 10:26:40;;;;;;;4.85;2.25;;;;;;;;;;12710945;19;2004951;-68
2023/03/16 10:32:23;;;;;;;8.95;2.33;;;;;;;;;;12812975;19;20425;-69
2023/03/16 10:43:09;;;;;;;7.80;2.47;;;;;;;;;;12816951;19;20717;-69
2023/03/16 10:48:15;;;;;;;;;;;;;;;;;;12820244;19;20434;-68
2023/03/16 10:59:11;;;;;;;4.35;1.77;;;;;;;;;;12811256;19;20580;-70
2023/03/16 11:04:15;;;;;;;4.32;1.85;;;;;;;;;;12804982;19;20314;-68
2023/03/16 11:15:17;;;;;;;3.40;2.05;;;;;;;;;;12708825;19;2005743;-69
2023/03/16 11:20:26;;;;;;;3.00;2.15;;;;;;;;;;12809741;19;20867;-68
2023/03/16 11:32:11;;;;;;;4.65;2.50;;;;;;;;;;12716578;19;2004949;-69
2023/03/16 11:37:35;;;;;;;5.40;1.90;;;;;;;;;;12719918;19;2004841;-68
2023/03/16 11:49:25;;;;;;;8.93;2.25;;;;;;;;;;12719536;19;2005506;-69
2023/03/16 11:54:30;;;;;;;3.53;1.95;;;;;;;;;;12820906;19;20418;-69
2023/03/16 12:00:03;;;;;;;3.47;2.10;;;;;;;;;;12821629;19;20321;-69
2023/03/16 12:11:11;;;;;;;4.10;1.67;;;;;;;;;;12818639;19;20315;-69
2023/03/16 12:16:18;;;;;;;5.60;2.25;;;;;;;;;;12819399;19;20656;-69
2023/03/16 12:21:43;;;;;;;3.78;1.63;;;;;;;;;;12826435;19;20418;-70
2023/03/16 12:26:19;;;;;;;4.28;2.65;;;;;;;;;;12817788;19;20421;-69
2023/03/16 12:32:16;;;;;;;5.95;2.22;;;;;;;;;;12818395;19;20358;-69
2023/03/16 12:37:44;;;;;;;3.17;1.95;;;;;;;;;;12819342;19;20486;-69
2023/03/16 12:44:19;;;;;;;3.50;1.58;;;;;;;;;;12715470;19;2005678;-69
2023/03/16 12:49:38;;;;;;;5.18;1.65;;;;;;;;;;12815769;19;20519;-69
2023/03/16 12:54:26;;;;;;;1.85;1.08;;;;;;;;;;12816842;19;20323;-69
2023/03/16 13:05:31;;;;;;;10.85;1.83;;;;;;;;;;12714440;19;2005107;-69
2023/03/16 13:10:09;;;;;;;8.27;2.67;;;;;;;;;;12821408;19;20532;-69
2023/03/16 13:21:56;;;;;;;5.60;2.38;;;;;;;;;;12719514;19;2005069;-69
2023/03/16 13:27:05;;;;;;;8.70;3.55;;;;;;;;;;12717117;19;2005776;-68
2023/03/16 13:32:17;;;;;;;4.40;1.70;;;;;;;;;;12820903;19;20426;-68
2023/03/16 13:37:38;;;;;;;5.60;1.95;;;;;;;;;;12816956;19;19994;-69
2023/03/16 13:42:58;;;;;;;15.77;5.37;;;;;;;;;;12815080;19;20296;-69
2023/03/16 13:48:17;;;;;;;7.63;1.95;;;;;;;;;;12816239;19;20006;-69
2023/03/16 13:53:43;;;;;;;16.67;6.20;;;;;;;;;;12815245;19;19998;-68
2023/03/16 13:59:06;;;;;;;7.13;2.78;;;;;;;;;;12814213;19;20418;-69
2023/03/16 14:04:28;;;;;;;14.43;4.43;;;;;;;;;;12815982;19;20296;-69
2023/03/16 14:10:04;;;;;;;9.70;3.47;;;;;;;;;;12800567;19;20358;-69
2023/03/16 14:15:31;;;;;;;22.33;9.65;;;;;;;;;;12797702;19;20319;-69
2023/03/16 14:21:04;;;;;;;10.60;3.95;;;;;;;;;;12799098;19;20426;-69
2023/03/16 14:26:33;;;;;;;7.10;3.35;;;;;;;;;;12795100;19;20018;-68
2023/03/16 14:31:19;;;;;;;4.22;1.90;;;;;;;;;;12807065;19;20493;-69
2023/03/16 14:36:02;;;;;;;2.92;1.67;;;;;;;;;;12819267;19;20473;-69
2023/03/16 14:46:46;;;;;;;6.57;2.60;;;;;;;;;;12811383;19;20383;-69
2023/03/16 14:51:38;;;;;;;17.10;8.20;;;;;;;;;;12818482;19;20011;-69
2023/03/16 14:57:38;;;;;;;4.82;2.50;;;;;;;;;;12819739;19;20351;-69
2023/03/16 15:03:19;;;;;;;4.75;2.10;;;;;;;;;;12818586;19;20305;-69
2023/03/16 15:08:17;;;;;;;;;;;;;;;;;;12843372;19;20018;-69
2023/03/16 15:20:15;;;;;;;4.23;2.10;;;;;;;;;;12739903;19;2005127;-69
2023/03/16 15:25:42;;;;;;;6.10;1.55;;;;;;;;;;12738399;19;2004713;-71
2023/03/16 15:37:28;;;;;;;3.33;1.60;;;;;;;;;;12733332;19;2004882;-70
2023/03/16 15:42:24;;;;;;;7.05;2.30;;;;;;;;;;12833574;19;20441;-69
2023/03/16 15:47:19;;;;;;;8.43;1.60;;;;;;;;;;12835315;19;20098;-68
2023/03/16 15:52:44;;;;;;;8.13;2.70;;;;;;;;;;12837042;19;20676;-69
2023/03/16 15:57:35;;;;;;;2.95;1.35;;;;;;;;;;12832718;19;20308;-68
2023/03/16 16:03:10;;;;;;;6.35;3.13;;;;;;;;;;12840669;19;20473;-69
2023/03/16 16:08:21;;;;;;;15.38;3.65;;;;;;;;;;12733814;19;2005172;-69
2023/03/16 16:13:31;;;;;;;14.85;4.40;;;;;;;;;;12831687;19;20435;-69
2023/03/16 16:30:31;;;;;;;36.17;16.23;;;;;;;;;;12817770;19;20449;-68
2023/03/16 16:36:16;;;;;;;36.50;19.42;;;;;;;;;;12818611;19;20086;-68
2023/03/16 16:52:16;;;;;;;79.20;34.05;;;;;;;;;;12815500;19;20430;-69
2023/03/16 17:03:25;;;;;;;;;;;;;;;;;;12716826;19;2005169;-67
2023/03/16 17:08:06;;;;;;;139.90;55.40;;;;;;;;;;12817200;19;20274;-68
2023/03/16 17:12:28;;;;;;;106.78;45.53;;;;;;;;;;12816608;19;20426;-69
2023/03/16 17:23:33;;;;;;;86.57;26.10;;;;;;;;;;12720586;19;2004974;-67
2023/03/16 17:28:44;;;;;;;87.32;26.15;;;;;;;;;;12812602;19;20481;-69
2023/03/16 17:33:24;;;;;;;82.68;23.25;;;;;;;;;;12810832;19;20481;-68
2023/03/16 17:44:10;;;;;;;75.90;23.40;;;;;;;;;;12723391;19;2005001;-67
2023/03/16 17:49:27;;;;;;;211.30;57.67;;;;;;;;;;12818837;19;20119;-67
2023/03/16 18:01:18;;;;;;;99.07;27.30;;;;;;;;;;12720393;19;2006108;-68
2023/03/16 18:06:08;;;;;;;;;;;;;;;;;;12822989;19;20007;-67
2023/03/16 18:11:11;;;;;;;76.18;28.50;;;;;;;;;;12815729;19;20299;-68
2023/03/16 18:16:26;;;;;;;314.80;70.47;;;;;;;;;;12820532;19;20642;-67
2023/03/16 18:21:38;;;;;;;505.35;117.60;;;;;;;;;;12813261;19;20406;-68
2023/03/16 18:26:18;;;;;;;59.58;18.17;;;;;;;;;;12820126;19;20474;-68
2023/03/16 18:37:37;;;;;;;55.28;15.50;;;;;;;;;;12718422;19;2006212;-67
2023/03/16 18:47:30;;;;;;;66.45;18.77;;;;;;;;;;12821113;19;20425;-67
2023/03/16 18:52:28;;;;;;;46.47;15.30;;;;;;;;;;12820873;19;20014;-67
2023/03/16 18:57:51;;;;;;;49.03;17.42;;;;;;;;;;12810904;19;20611;-67
2023/03/16 19:03:15;;;;;;;68.25;20.23;;;;;;;;;;12811925;19;20015;-68
2023/03/16 19:14:38;;;;;;;65.30;24.67;;;;;;;;;;12709960;19;2004870;-67
2023/03/16 19:19:24;;;;;;;87.20;30.38;;;;;;;;;;12813819;19;20475;-68
2023/03/16 19:24:45;;;;;;;117.10;39.15;;;;;;;;;;12813108;19;20318;-67
2023/03/16 19:35:33;;;;;;;83.63;28.20;;;;;;;;;;12814409;19;20007;-68
2023/03/16 19:41:28;;;;;;;169.35;46.97;;;;;;;;;;12815471;19;20429;-68
2023/03/16 19:47:29;;;;;;;278.67;76.57;;;;;;;;;;12815075;19;20429;-68
2023/03/16 19:52:31;;;;;;;413.05;122.18;;;;;;;;;;12821674;19;20477;-67
2023/03/16 19:57:13;;;;;;;363.80;113.03;;;;;;;;;;12831845;19;20406;-67
2023/03/16 20:01:39;;;;;;;168.18;53.05;;;;;;;;;;12830576;19;20485;-67
2023/03/16 20:07:27;;;;;;;177.65;55.22;;;;;;;;;;12828676;19;20456;-67
2023/03/16 20:12:03;;;;;;;123.35;38.58;;;;;;;;;;12829054;19;20429;-67
2023/03/16 20:23:07;;;;;;;156.27;52.10;;;;;;;;;;12819405;19;20507;-67
2023/03/16 20:28:10;;;;;;;100.80;32.35;;;;;;;;;;12818930;19;20426;-68
2023/03/16 20:32:38;;;;;;;89.50;31.13;;;;;;;;;;12820160;19;20705;-67
2023/03/16 20:43:34;;;;;;;96.15;32.65;;;;;;;;;;12817955;19;20434;-68
2023/03/16 20:48:20;;;;;;;92.45;30.98;;;;;;;;;;12819760;19;20843;-67
2023/03/16 20:53:03;;;;;;;72.70;26.60;;;;;;;;;;12829480;19;20533;-68
2023/03/16 20:58:35;;;;;;;89.43;29.50;;;;;;;;;;12824376;19;20541;-67
2023/03/16 21:03:34;;;;;;;82.57;30.42;;;;;;;;;;12823714;19;20426;-67
2023/03/16 21:09:02;;;;;;;90.75;31.65;;;;;;;;;;12827381;19;20314;-68
2023/03/16 21:15:26;;;;;;;102.97;31.77;;;;;;;;;;12714539;19;2004974;-68
2023/03/16 21:20:20;;;;;;;106.85;32.97;;;;;;;;;;12816327;19;21002;-66
2023/03/16 21:25:29;;;;;;;106.50;31.02;;;;;;;;;;12817048;19;20456;-67
2023/03/16 21:37:19;;;;;;;114.78;32.47;;;;;;;;;;12714644;19;2004992;-67
2023/03/16 21:42:05;;;;;;;89.38;27.73;;;;;;;;;;12812676;19;20431;-67
2023/03/16 21:46:46;;;;;;;84.25;29.83;;;;;;;;;;12824450;19;20343;-67
2023/03/16 21:52:45;;;;;;;84.40;30.15;;;;;;;;;;12821847;19;20443;-67
2023/03/16 21:57:34;;;;;;;94.20;32.42;;;;;;;;;;12820464;19;20473;-67
2023/03/16 22:02:36;;;;;;;111.38;37.40;;;;;;;;;;12814670;19;20318;-67
2023/03/16 22:07:35;;;;;;;115.13;40.88;;;;;;;;;;12816793;19;20351;-68
2023/03/16 22:13:02;;;;;;;170.98;55.50;;;;;;;;;;12812666;19;20446;-67
2023/03/16 22:17:43;;;;;;;182.63;60.67;;;;;;;;;;12812634;19;20066;-69
2023/03/16 22:23:11;;;;;;;183.55;57.38;;;;;;;;;;12813811;19;20435;-67
2023/03/16 22:38:34;;;;;;;117.05;41.95;;;;;;;;;;12816134;19;20086;-67
2023/03/16 22:43:17;;;;;;;99.05;37.72;;;;;;;;;;12819145;19;20430;-68
2023/03/16 22:48:02;;;;;;;81.07;31.65;;;;;;;;;;12819877;19;20512;-66
2023/03/16 22:59:06;;;;;;;104.28;34.47;;;;;;;;;;12813846;19;20371;-68
2023/03/16 23:09:28;;;;;;;96.30;31.02;;;;;;;;;;12809453;19;20295;-68
2023/03/16 23:14:20;;;;;;;89.22;32.15;;;;;;;;;;12809205;19;20628;-67
2023/03/16 23:19:35;;;;;;;83.18;30.65;;;;;;;;;;12811412;19;20601;-68
2023/03/16 23:25:12;;;;;;;72.00;27.05;;;;;;;;;;12813002;19;20362;-67
2023/03/16 23:30:21;;;;;;;76.63;26.40;;;;;;;;;;12822769;19;20438;-68
2023/03/16 23:35:37;;;;;;;72.03;25.23;;;;;;;;;;12823110;19;20600;-68
2023/03/16 23:40:43;;;;;;;61.03;25.73;;;;;;;;;;12821006;19;20433;-67
2023/03/16 23:46:18;;;;;;;57.03;22.08;;;;;;;;;;12815619;19;20300;-68
2023/03/16 23:51:04;;;;;;;65.07;26.30;;;;;;;;;;12819929;19;20308;-68
2023/03/16 23:55:48;;;;;;;51.85;20.95;;;;;;;;;;12821876;19;20368;-67
